sensor_id;sensor_type;location;lat;lon;timestamp;temperature;humidity
8820;DHT22;4446;50.876;4.736;2022-10-18T00:01:20;14.80;99.90
8820;DHT22;4446;50.876;4.736;2022-10-18T00:03:47;14.80;99.90
8820;DHT22;4446;50.876;4.736;2022-10-18T00:06:15;14.80;99.90
8820;DHT22;4446;50.876;4.736;2022-10-18T00:08:42;14.80;99.90
8820;DHT22;4446;50.876;4.736;2022-10-18T00:11:09;14.80;99.90
8820;DHT22;4446;50.876;4.736;2022-10-18T00:13:37;14.80;99.90
8820;DHT22;4446;50.876;4.736;2022-10-18T00:16:08;14.80;99.90
8820;DHT22;4446;50.876;4.736;2022-10-18T00:18:36;14.90;99.90
8820;DHT22;4446;50.876;4.736;2022-10-18T00:21:05;14.90;99.90
8820;DHT22;4446;50.876;4.736;2022-10-18T00:23:35;14.90;99.90
8820;DHT22;4446;50.876;4.736;2022-10-18T00:26:03;14.90;99.90
8820;DHT22;4446;50.876;4.736;2022-10-18T00:28:31;14.90;99.90
8820;DHT22;4446;50.876;4.736;2022-10-18T00:31:09;14.90;99.90
8820;DHT22;4446;50.876;4.736;2022-10-18T00:33:37;14.90;99.90
8820;DHT22;4446;50.876;4.736;2022-10-18T00:36:04;14.90;99.90
8820;DHT22;4446;50.876;4.736;2022-10-18T00:38:31;14.90;99.90
8820;DHT22;4446;50.876;4.736;2022-10-18T00:41:00;14.90;99.90
8820;DHT22;4446;50.876;4.736;2022-10-18T00:43:27;14.90;99.90
8820;DHT22;4446;50.876;4.736;2022-10-18T00:45:54;14.90;99.90
8820;DHT22;4446;50.876;4.736;2022-10-18T00:48:21;14.90;99.90
8820;DHT22;4446;50.876;4.736;2022-10-18T00:50:50;14.90;99.90
8820;DHT22;4446;50.876;4.736;2022-10-18T00:53:19;14.90;99.90
8820;DHT22;4446;50.876;4.736;2022-10-18T00:55:48;14.90;99.90
8820;DHT22;4446;50.876;4.736;2022-10-18T00:58:17;14.90;99.90
8820;DHT22;4446;50.876;4.736;2022-10-18T01:00:45;14.90;99.90
8820;DHT22;4446;50.876;4.736;2022-10-18T01:03:12;14.90;99.90
8820;DHT22;4446;50.876;4.736;2022-10-18T01:05:42;14.90;99.90
8820;DHT22;4446;50.876;4.736;2022-10-18T01:08:31;14.90;99.90
8820;DHT22;4446;50.876;4.736;2022-10-18T01:11:08;14.90;99.90
8820;DHT22;4446;50.876;4.736;2022-10-18T01:13:55;14.90;99.90
8820;DHT22;4446;50.876;4.736;2022-10-18T01:16:29;14.90;99.90
8820;DHT22;4446;50.876;4.736;2022-10-18T01:19:01;14.90;99.90
8820;DHT22;4446;50.876;4.736;2022-10-18T01:21:38;14.90;99.90
8820;DHT22;4446;50.876;4.736;2022-10-18T01:24:18;14.90;99.90
8820;DHT22;4446;50.876;4.736;2022-10-18T01:27:20;14.90;99.90
8820;DHT22;4446;50.876;4.736;2022-10-18T01:30:02;14.90;99.90
8820;DHT22;4446;50.876;4.736;2022-10-18T01:32:35;14.90;99.90
8820;DHT22;4446;50.876;4.736;2022-10-18T01:35:06;14.90;99.90
8820;DHT22;4446;50.876;4.736;2022-10-18T01:37:34;14.90;99.90
8820;DHT22;4446;50.876;4.736;2022-10-18T01:40:03;14.80;99.90
8820;DHT22;4446;50.876;4.736;2022-10-18T01:42:32;14.80;99.90
8820;DHT22;4446;50.876;4.736;2022-10-18T01:45:00;14.90;99.90
8820;DHT22;4446;50.876;4.736;2022-10-18T01:47:31;14.90;99.90
8820;DHT22;4446;50.876;4.736;2022-10-18T01:49:59;14.90;99.90
8820;DHT22;4446;50.876;4.736;2022-10-18T01:52:26;14.90;99.90
8820;DHT22;4446;50.876;4.736;2022-10-18T01:54:54;14.90;99.90
8820;DHT22;4446;50.876;4.736;2022-10-18T01:57:26;14.90;99.90
8820;DHT22;4446;50.876;4.736;2022-10-18T02:00:00;14.90;99.90
8820;DHT22;4446;50.876;4.736;2022-10-18T02:02:40;14.90;99.90
8820;DHT22;4446;50.876;4.736;2022-10-18T02:05:14;14.90;99.90
8820;DHT22;4446;50.876;4.736;2022-10-18T02:07:47;14.90;99.90
8820;DHT22;4446;50.876;4.736;2022-10-18T02:10:20;14.90;99.90
8820;DHT22;4446;50.876;4.736;2022-10-18T02:12:49;14.90;99.90
8820;DHT22;4446;50.876;4.736;2022-10-18T02:15:20;14.80;99.90
8820;DHT22;4446;50.876;4.736;2022-10-18T02:17:49;14.80;99.90
8820;DHT22;4446;50.876;4.736;2022-10-18T02:20:21;14.80;99.90
8820;DHT22;4446;50.876;4.736;2022-10-18T02:22:52;14.80;99.90
8820;DHT22;4446;50.876;4.736;2022-10-18T02:25:23;14.80;99.90
8820;DHT22;4446;50.876;4.736;2022-10-18T02:27:50;14.80;99.90
8820;DHT22;4446;50.876;4.736;2022-10-18T02:30:18;14.80;99.90
8820;DHT22;4446;50.876;4.736;2022-10-18T02:32:55;14.70;99.90
8820;DHT22;4446;50.876;4.736;2022-10-18T02:35:26;14.70;99.90
8820;DHT22;4446;50.876;4.736;2022-10-18T02:37:56;14.70;99.90
8820;DHT22;4446;50.876;4.736;2022-10-18T02:40:24;14.70;99.90
8820;DHT22;4446;50.876;4.736;2022-10-18T02:42:54;14.70;99.90
8820;DHT22;4446;50.876;4.736;2022-10-18T02:45:21;14.70;99.90
8820;DHT22;4446;50.876;4.736;2022-10-18T02:47:51;14.60;99.90
8820;DHT22;4446;50.876;4.736;2022-10-18T02:50:18;14.60;99.90
8820;DHT22;4446;50.876;4.736;2022-10-18T02:52:45;14.60;99.90
8820;DHT22;4446;50.876;4.736;2022-10-18T02:55:12;14.60;99.90
8820;DHT22;4446;50.876;4.736;2022-10-18T02:57:39;14.60;99.90
8820;DHT22;4446;50.876;4.736;2022-10-18T03:00:08;14.60;99.90
8820;DHT22;4446;50.876;4.736;2022-10-18T03:02:35;14.60;99.90
8820;DHT22;4446;50.876;4.736;2022-10-18T03:05:04;14.60;99.90
8820;DHT22;4446;50.876;4.736;2022-10-18T03:07:31;14.60;99.90
8820;DHT22;4446;50.876;4.736;2022-10-18T03:09:58;14.70;99.90
8820;DHT22;4446;50.876;4.736;2022-10-18T03:12:25;14.70;99.90
8820;DHT22;4446;50.876;4.736;2022-10-18T03:14:52;14.70;99.90
8820;DHT22;4446;50.876;4.736;2022-10-18T03:17:19;14.70;99.90
8820;DHT22;4446;50.876;4.736;2022-10-18T03:19:46;14.70;99.90
8820;DHT22;4446;50.876;4.736;2022-10-18T03:22:14;14.80;99.90
8820;DHT22;4446;50.876;4.736;2022-10-18T03:24:41;14.80;99.90
8820;DHT22;4446;50.876;4.736;2022-10-18T03:27:08;14.80;99.90
8820;DHT22;4446;50.876;4.736;2022-10-18T03:29:35;14.80;99.90
8820;DHT22;4446;50.876;4.736;2022-10-18T03:32:02;14.80;99.90
8820;DHT22;4446;50.876;4.736;2022-10-18T03:34:29;14.80;99.90
8820;DHT22;4446;50.876;4.736;2022-10-18T03:36:56;14.80;99.90
8820;DHT22;4446;50.876;4.736;2022-10-18T03:39:25;14.80;99.90
8820;DHT22;4446;50.876;4.736;2022-10-18T03:41:52;14.80;99.90
8820;DHT22;4446;50.876;4.736;2022-10-18T03:44:19;14.80;99.90
8820;DHT22;4446;50.876;4.736;2022-10-18T03:46:46;14.80;99.90
8820;DHT22;4446;50.876;4.736;2022-10-18T03:49:13;14.80;99.90
8820;DHT22;4446;50.876;4.736;2022-10-18T03:51:40;14.80;99.90
8820;DHT22;4446;50.876;4.736;2022-10-18T03:54:07;14.80;99.90
8820;DHT22;4446;50.876;4.736;2022-10-18T03:56:35;14.70;99.90
8820;DHT22;4446;50.876;4.736;2022-10-18T03:59:02;14.70;99.90
8820;DHT22;4446;50.876;4.736;2022-10-18T04:01:29;14.70;99.90
8820;DHT22;4446;50.876;4.736;2022-10-18T04:03:56;14.70;99.90
8820;DHT22;4446;50.876;4.736;2022-10-18T04:06:23;14.70;99.90
8820;DHT22;4446;50.876;4.736;2022-10-18T04:08:50;14.70;99.90
8820;DHT22;4446;50.876;4.736;2022-10-18T04:11:17;14.70;99.90
8820;DHT22;4446;50.876;4.736;2022-10-18T04:13:46;14.70;99.90
8820;DHT22;4446;50.876;4.736;2022-10-18T04:16:13;14.70;99.90
8820;DHT22;4446;50.876;4.736;2022-10-18T04:18:40;14.70;99.90
8820;DHT22;4446;50.876;4.736;2022-10-18T04:21:07;14.70;99.90
8820;DHT22;4446;50.876;4.736;2022-10-18T04:23:34;14.70;99.90
8820;DHT22;4446;50.876;4.736;2022-10-18T04:26:01;14.70;99.90
8820;DHT22;4446;50.876;4.736;2022-10-18T04:28:27;14.70;99.90
8820;DHT22;4446;50.876;4.736;2022-10-18T04:30:56;14.70;99.90
8820;DHT22;4446;50.876;4.736;2022-10-18T04:33:24;14.70;99.90
8820;DHT22;4446;50.876;4.736;2022-10-18T04:35:51;14.70;99.90
8820;DHT22;4446;50.876;4.736;2022-10-18T04:38:19;14.70;99.90
8820;DHT22;4446;50.876;4.736;2022-10-18T04:40:46;14.70;99.90
8820;DHT22;4446;50.876;4.736;2022-10-18T04:43:13;14.70;99.90
8820;DHT22;4446;50.876;4.736;2022-10-18T04:45:40;14.70;99.90
8820;DHT22;4446;50.876;4.736;2022-10-18T04:48:09;14.70;99.90
8820;DHT22;4446;50.876;4.736;2022-10-18T04:50:36;14.70;99.90
8820;DHT22;4446;50.876;4.736;2022-10-18T04:53:03;14.70;99.90
8820;DHT22;4446;50.876;4.736;2022-10-18T04:55:30;14.70;99.90
8820;DHT22;4446;50.876;4.736;2022-10-18T04:57:57;14.70;99.90
8820;DHT22;4446;50.876;4.736;2022-10-18T05:00:24;14.70;99.90
8820;DHT22;4446;50.876;4.736;2022-10-18T05:02:55;14.70;99.90
8820;DHT22;4446;50.876;4.736;2022-10-18T05:05:24;14.70;99.90
8820;DHT22;4446;50.876;4.736;2022-10-18T05:07:51;14.70;99.90
8820;DHT22;4446;50.876;4.736;2022-10-18T05:10:21;14.70;99.90
8820;DHT22;4446;50.876;4.736;2022-10-18T05:12:48;14.70;99.90
8820;DHT22;4446;50.876;4.736;2022-10-18T05:15:17;14.70;99.90
8820;DHT22;4446;50.876;4.736;2022-10-18T05:17:44;14.70;99.90
8820;DHT22;4446;50.876;4.736;2022-10-18T05:20:11;14.70;99.90
8820;DHT22;4446;50.876;4.736;2022-10-18T05:22:39;14.60;99.90
8820;DHT22;4446;50.876;4.736;2022-10-18T05:25:07;14.60;99.90
8820;DHT22;4446;50.876;4.736;2022-10-18T05:27:34;14.60;99.90
8820;DHT22;4446;50.876;4.736;2022-10-18T05:30:02;14.60;99.90
8820;DHT22;4446;50.876;4.736;2022-10-18T05:32:30;14.60;99.90
8820;DHT22;4446;50.876;4.736;2022-10-18T05:34:57;14.50;99.90
8820;DHT22;4446;50.876;4.736;2022-10-18T05:37:24;14.50;99.90
8820;DHT22;4446;50.876;4.736;2022-10-18T05:39:52;14.60;99.90
8820;DHT22;4446;50.876;4.736;2022-10-18T05:42:19;14.50;99.90
8820;DHT22;4446;50.876;4.736;2022-10-18T05:44:46;14.50;99.90
8820;DHT22;4446;50.876;4.736;2022-10-18T05:47:14;14.50;99.90
8820;DHT22;4446;50.876;4.736;2022-10-18T05:49:41;14.50;99.90
8820;DHT22;4446;50.876;4.736;2022-10-18T05:52:08;14.40;99.90
8820;DHT22;4446;50.876;4.736;2022-10-18T05:54:35;14.30;99.90
8820;DHT22;4446;50.876;4.736;2022-10-18T05:57:03;14.30;99.90
8820;DHT22;4446;50.876;4.736;2022-10-18T05:59:30;14.20;99.90
8820;DHT22;4446;50.876;4.736;2022-10-18T06:01:57;14.10;99.90
8820;DHT22;4446;50.876;4.736;2022-10-18T06:04:24;14.10;99.90
8820;DHT22;4446;50.876;4.736;2022-10-18T06:06:51;14.10;99.90
8820;DHT22;4446;50.876;4.736;2022-10-18T06:09:18;14.00;99.90
8820;DHT22;4446;50.876;4.736;2022-10-18T06:11:45;14.00;99.90
8820;DHT22;4446;50.876;4.736;2022-10-18T06:14:13;14.00;99.90
8820;DHT22;4446;50.876;4.736;2022-10-18T06:16:40;14.00;99.90
8820;DHT22;4446;50.876;4.736;2022-10-18T06:19:07;14.00;99.90
8820;DHT22;4446;50.876;4.736;2022-10-18T06:21:34;14.00;99.90
8820;DHT22;4446;50.876;4.736;2022-10-18T06:24:01;14.00;99.90
8820;DHT22;4446;50.876;4.736;2022-10-18T06:26:28;13.90;99.90
8820;DHT22;4446;50.876;4.736;2022-10-18T06:28:55;13.90;99.90
8820;DHT22;4446;50.876;4.736;2022-10-18T06:31:24;13.90;99.90
8820;DHT22;4446;50.876;4.736;2022-10-18T06:33:51;13.90;99.90
8820;DHT22;4446;50.876;4.736;2022-10-18T06:36:19;13.90;99.90
8820;DHT22;4446;50.876;4.736;2022-10-18T06:38:46;13.90;99.90
8820;DHT22;4446;50.876;4.736;2022-10-18T06:41:13;13.90;99.90
8820;DHT22;4446;50.876;4.736;2022-10-18T06:43:40;13.90;99.90
8820;DHT22;4446;50.876;4.736;2022-10-18T06:46:08;14.00;99.90
8820;DHT22;4446;50.876;4.736;2022-10-18T06:48:37;14.00;99.90
8820;DHT22;4446;50.876;4.736;2022-10-18T06:51:06;14.10;99.90
8820;DHT22;4446;50.876;4.736;2022-10-18T06:53:36;14.10;99.90
8820;DHT22;4446;50.876;4.736;2022-10-18T06:56:04;14.10;99.90
8820;DHT22;4446;50.876;4.736;2022-10-18T06:58:32;14.20;99.90
8820;DHT22;4446;50.876;4.736;2022-10-18T07:01:04;14.20;99.90
8820;DHT22;4446;50.876;4.736;2022-10-18T07:03:31;14.30;99.90
8820;DHT22;4446;50.876;4.736;2022-10-18T07:06:01;14.30;99.90
8820;DHT22;4446;50.876;4.736;2022-10-18T07:08:28;14.40;99.90
8820;DHT22;4446;50.876;4.736;2022-10-18T07:10:56;14.40;99.90
8820;DHT22;4446;50.876;4.736;2022-10-18T07:13:23;14.50;99.90
8820;DHT22;4446;50.876;4.736;2022-10-18T07:16:00;14.50;99.90
8820;DHT22;4446;50.876;4.736;2022-10-18T07:18:27;14.50;99.90
8820;DHT22;4446;50.876;4.736;2022-10-18T07:20:54;14.50;99.90
8820;DHT22;4446;50.876;4.736;2022-10-18T07:23:22;14.50;99.90
8820;DHT22;4446;50.876;4.736;2022-10-18T07:25:49;14.50;99.90
8820;DHT22;4446;50.876;4.736;2022-10-18T07:28:16;14.60;99.90
8820;DHT22;4446;50.876;4.736;2022-10-18T07:30:43;14.60;99.90
8820;DHT22;4446;50.876;4.736;2022-10-18T07:33:10;14.60;99.90
8820;DHT22;4446;50.876;4.736;2022-10-18T07:35:37;14.60;99.90
8820;DHT22;4446;50.876;4.736;2022-10-18T07:38:04;14.60;99.90
8820;DHT22;4446;50.876;4.736;2022-10-18T07:40:32;14.60;99.90
8820;DHT22;4446;50.876;4.736;2022-10-18T07:42:59;14.50;99.90
8820;DHT22;4446;50.876;4.736;2022-10-18T07:45:26;14.40;99.90
8820;DHT22;4446;50.876;4.736;2022-10-18T07:47:54;14.30;99.90
8820;DHT22;4446;50.876;4.736;2022-10-18T07:50:22;14.20;99.90
8820;DHT22;4446;50.876;4.736;2022-10-18T07:52:49;14.20;99.90
8820;DHT22;4446;50.876;4.736;2022-10-18T07:55:16;14.00;99.90
8820;DHT22;4446;50.876;4.736;2022-10-18T07:57:44;14.00;99.90
8820;DHT22;4446;50.876;4.736;2022-10-18T08:00:12;14.00;99.90
8820;DHT22;4446;50.876;4.736;2022-10-18T08:02:39;14.00;99.90
8820;DHT22;4446;50.876;4.736;2022-10-18T08:05:06;14.00;99.90
8820;DHT22;4446;50.876;4.736;2022-10-18T08:07:33;14.10;99.90
8820;DHT22;4446;50.876;4.736;2022-10-18T08:10:00;14.20;99.90
8820;DHT22;4446;50.876;4.736;2022-10-18T08:12:27;14.30;99.90
8820;DHT22;4446;50.876;4.736;2022-10-18T08:14:55;14.30;99.90
8820;DHT22;4446;50.876;4.736;2022-10-18T08:17:22;14.30;99.90
8820;DHT22;4446;50.876;4.736;2022-10-18T08:19:49;14.20;99.90
8820;DHT22;4446;50.876;4.736;2022-10-18T08:22:16;14.20;99.90
8820;DHT22;4446;50.876;4.736;2022-10-18T08:24:43;14.30;99.90
8820;DHT22;4446;50.876;4.736;2022-10-18T08:27:10;14.40;99.90
8820;DHT22;4446;50.876;4.736;2022-10-18T08:29:37;14.40;99.90
8820;DHT22;4446;50.876;4.736;2022-10-18T08:32:06;14.50;99.90
8820;DHT22;4446;50.876;4.736;2022-10-18T08:34:33;14.50;99.90
8820;DHT22;4446;50.876;4.736;2022-10-18T08:37:00;14.50;99.90
8820;DHT22;4446;50.876;4.736;2022-10-18T08:39:28;14.60;99.90
8820;DHT22;4446;50.876;4.736;2022-10-18T08:42:21;14.50;99.90
8820;DHT22;4446;50.876;4.736;2022-10-18T08:44:51;14.50;99.90
8820;DHT22;4446;50.876;4.736;2022-10-18T08:47:24;14.50;99.90
8820;DHT22;4446;50.876;4.736;2022-10-18T08:50:00;14.60;99.90
8820;DHT22;4446;50.876;4.736;2022-10-18T08:52:33;14.60;99.90
8820;DHT22;4446;50.876;4.736;2022-10-18T08:55:03;14.70;99.90
8820;DHT22;4446;50.876;4.736;2022-10-18T08:57:32;14.80;99.90
8820;DHT22;4446;50.876;4.736;2022-10-18T09:00:01;14.90;99.90
8820;DHT22;4446;50.876;4.736;2022-10-18T09:02:49;15.00;99.90
8820;DHT22;4446;50.876;4.736;2022-10-18T09:05:26;15.10;99.90
8820;DHT22;4446;50.876;4.736;2022-10-18T09:08:08;15.10;99.90
8820;DHT22;4446;50.876;4.736;2022-10-18T09:10:43;15.30;99.90
8820;DHT22;4446;50.876;4.736;2022-10-18T09:13:28;15.40;99.90
8820;DHT22;4446;50.876;4.736;2022-10-18T09:16:03;15.60;99.90
8820;DHT22;4446;50.876;4.736;2022-10-18T09:18:52;15.80;99.90
8820;DHT22;4446;50.876;4.736;2022-10-18T09:21:26;15.80;99.90
8820;DHT22;4446;50.876;4.736;2022-10-18T09:24:02;15.80;99.90
8820;DHT22;4446;50.876;4.736;2022-10-18T09:26:40;15.70;99.90
8820;DHT22;4446;50.876;4.736;2022-10-18T09:29:21;15.60;99.90
8820;DHT22;4446;50.876;4.736;2022-10-18T09:31:56;15.60;99.90
8820;DHT22;4446;50.876;4.736;2022-10-18T09:34:30;15.60;99.90
8820;DHT22;4446;50.876;4.736;2022-10-18T09:37:02;15.60;99.90
8820;DHT22;4446;50.876;4.736;2022-10-18T09:39:32;15.60;99.90
8820;DHT22;4446;50.876;4.736;2022-10-18T09:42:03;15.60;99.90
8820;DHT22;4446;50.876;4.736;2022-10-18T09:44:34;15.70;99.90
8820;DHT22;4446;50.876;4.736;2022-10-18T09:47:13;15.80;99.90
8820;DHT22;4446;50.876;4.736;2022-10-18T09:49:47;15.90;99.90
8820;DHT22;4446;50.876;4.736;2022-10-18T09:52:18;16.10;99.90
8820;DHT22;4446;50.876;4.736;2022-10-18T09:54:50;16.20;99.90
8820;DHT22;4446;50.876;4.736;2022-10-18T09:57:25;16.30;99.90
8820;DHT22;4446;50.876;4.736;2022-10-18T09:59:53;16.50;99.90
8820;DHT22;4446;50.876;4.736;2022-10-18T10:02:21;16.70;99.90
8820;DHT22;4446;50.876;4.736;2022-10-18T10:04:51;16.80;99.90
8820;DHT22;4446;50.876;4.736;2022-10-18T10:07:20;16.90;99.90
8820;DHT22;4446;50.876;4.736;2022-10-18T10:09:56;16.80;99.90
8820;DHT22;4446;50.876;4.736;2022-10-18T10:12:29;16.70;99.90
8820;DHT22;4446;50.876;4.736;2022-10-18T10:15:11;16.70;99.90
8820;DHT22;4446;50.876;4.736;2022-10-18T10:17:43;16.70;99.90
8820;DHT22;4446;50.876;4.736;2022-10-18T10:20:17;16.80;99.90
8820;DHT22;4446;50.876;4.736;2022-10-18T10:22:46;16.90;99.90
8820;DHT22;4446;50.876;4.736;2022-10-18T10:25:22;16.90;99.90
8820;DHT22;4446;50.876;4.736;2022-10-18T10:27:51;17.00;99.90
8820;DHT22;4446;50.876;4.736;2022-10-18T10:30:26;17.10;99.90
8820;DHT22;4446;50.876;4.736;2022-10-18T10:32:54;17.20;99.90
8820;DHT22;4446;50.876;4.736;2022-10-18T10:35:34;17.20;99.90
8820;DHT22;4446;50.876;4.736;2022-10-18T10:38:01;17.20;99.90
8820;DHT22;4446;50.876;4.736;2022-10-18T10:40:29;17.20;99.90
8820;DHT22;4446;50.876;4.736;2022-10-18T10:43:00;17.20;99.90
8820;DHT22;4446;50.876;4.736;2022-10-18T10:45:30;17.20;99.90
8820;DHT22;4446;50.876;4.736;2022-10-18T10:48:07;17.20;99.90
8820;DHT22;4446;50.876;4.736;2022-10-18T10:51:02;17.10;99.90
8820;DHT22;4446;50.876;4.736;2022-10-18T10:53:36;17.10;99.90
8820;DHT22;4446;50.876;4.736;2022-10-18T10:56:05;17.10;99.90
8820;DHT22;4446;50.876;4.736;2022-10-18T10:58:35;17.20;99.90
8820;DHT22;4446;50.876;4.736;2022-10-18T11:01:21;17.20;99.90
8820;DHT22;4446;50.876;4.736;2022-10-18T11:03:52;17.10;99.90
8820;DHT22;4446;50.876;4.736;2022-10-18T11:06:34;17.10;99.90
8820;DHT22;4446;50.876;4.736;2022-10-18T11:09:11;17.00;99.90
8820;DHT22;4446;50.876;4.736;2022-10-18T11:11:47;17.00;99.90
8820;DHT22;4446;50.876;4.736;2022-10-18T11:14:22;17.00;99.90
8820;DHT22;4446;50.876;4.736;2022-10-18T11:16:55;17.00;99.90
8820;DHT22;4446;50.876;4.736;2022-10-18T11:19:31;17.10;99.90
8820;DHT22;4446;50.876;4.736;2022-10-18T11:22:04;17.20;99.90
8820;DHT22;4446;50.876;4.736;2022-10-18T11:24:34;17.30;99.90
8820;DHT22;4446;50.876;4.736;2022-10-18T11:27:05;17.30;99.90
8820;DHT22;4446;50.876;4.736;2022-10-18T11:29:47;17.30;99.90
8820;DHT22;4446;50.876;4.736;2022-10-18T11:32:22;17.30;99.90
8820;DHT22;4446;50.876;4.736;2022-10-18T11:35:06;17.40;99.90
8820;DHT22;4446;50.876;4.736;2022-10-18T11:40:53;17.40;99.90
8820;DHT22;4446;50.876;4.736;2022-10-18T11:43:25;17.50;99.90
8820;DHT22;4446;50.876;4.736;2022-10-18T11:45:58;17.60;99.90
8820;DHT22;4446;50.876;4.736;2022-10-18T11:48:42;17.60;99.90
8820;DHT22;4446;50.876;4.736;2022-10-18T11:51:19;17.60;99.90
8820;DHT22;4446;50.876;4.736;2022-10-18T11:53:57;17.60;99.90
8820;DHT22;4446;50.876;4.736;2022-10-18T11:56:35;17.60;99.90
8820;DHT22;4446;50.876;4.736;2022-10-18T11:59:23;17.70;99.90
8820;DHT22;4446;50.876;4.736;2022-10-18T12:01:59;17.70;99.90
8820;DHT22;4446;50.876;4.736;2022-10-18T12:04:33;17.70;99.90
8820;DHT22;4446;50.876;4.736;2022-10-18T12:07:04;17.80;99.90
8820;DHT22;4446;50.876;4.736;2022-10-18T12:09:35;17.90;99.90
8820;DHT22;4446;50.876;4.736;2022-10-18T12:12:11;17.90;99.90
8820;DHT22;4446;50.876;4.736;2022-10-18T12:14:44;17.90;99.90
8820;DHT22;4446;50.876;4.736;2022-10-18T12:17:19;17.90;99.90
8820;DHT22;4446;50.876;4.736;2022-10-18T12:19:48;18.00;99.90
8820;DHT22;4446;50.876;4.736;2022-10-18T12:22:20;18.00;99.90
8820;DHT22;4446;50.876;4.736;2022-10-18T12:24:48;18.00;99.90
8820;DHT22;4446;50.876;4.736;2022-10-18T12:27:17;18.10;99.90
8820;DHT22;4446;50.876;4.736;2022-10-18T12:29:49;18.20;99.90
8820;DHT22;4446;50.876;4.736;2022-10-18T12:32:20;18.30;99.90
8820;DHT22;4446;50.876;4.736;2022-10-18T12:34:53;18.40;99.90
8820;DHT22;4446;50.876;4.736;2022-10-18T12:40:35;18.50;99.90
8820;DHT22;4446;50.876;4.736;2022-10-18T12:43:08;18.60;99.90
8820;DHT22;4446;50.876;4.736;2022-10-18T12:45:47;18.60;99.90
8820;DHT22;4446;50.876;4.736;2022-10-18T12:48:31;18.60;99.90
8820;DHT22;4446;50.876;4.736;2022-10-18T12:51:02;18.70;99.90
8820;DHT22;4446;50.876;4.736;2022-10-18T12:53:30;18.80;99.90
8820;DHT22;4446;50.876;4.736;2022-10-18T13:02:19;18.90;99.90
8820;DHT22;4446;50.876;4.736;2022-10-18T13:04:46;18.90;99.90
8820;DHT22;4446;50.876;4.736;2022-10-18T13:07:19;19.10;99.90
8820;DHT22;4446;50.876;4.736;2022-10-18T13:16:01;19.10;99.90
8820;DHT22;4446;50.876;4.736;2022-10-18T13:18:39;19.10;99.90
8820;DHT22;4446;50.876;4.736;2022-10-18T13:21:15;19.10;99.90
8820;DHT22;4446;50.876;4.736;2022-10-18T13:24:05;19.20;99.90
8820;DHT22;4446;50.876;4.736;2022-10-18T13:26:43;19.20;99.90
8820;DHT22;4446;50.876;4.736;2022-10-18T13:29:33;19.20;99.90
8820;DHT22;4446;50.876;4.736;2022-10-18T13:32:13;19.20;99.90
8820;DHT22;4446;50.876;4.736;2022-10-18T13:34:45;19.30;99.90
8820;DHT22;4446;50.876;4.736;2022-10-18T13:37:20;19.30;99.90
8820;DHT22;4446;50.876;4.736;2022-10-18T13:39:50;19.40;99.90
8820;DHT22;4446;50.876;4.736;2022-10-18T13:42:29;19.40;99.90
8820;DHT22;4446;50.876;4.736;2022-10-18T13:53:57;19.40;99.90
8820;DHT22;4446;50.876;4.736;2022-10-18T13:56:55;19.30;99.90
8820;DHT22;4446;50.876;4.736;2022-10-18T13:59:37;19.20;99.90
8820;DHT22;4446;50.876;4.736;2022-10-18T14:02:35;19.20;99.90
8820;DHT22;4446;50.876;4.736;2022-10-18T14:05:17;19.10;99.90
8820;DHT22;4446;50.876;4.736;2022-10-18T14:07:48;19.10;99.90
8820;DHT22;4446;50.876;4.736;2022-10-18T14:10:21;19.00;99.90
8820;DHT22;4446;50.876;4.736;2022-10-18T14:12:52;18.90;99.90
8820;DHT22;4446;50.876;4.736;2022-10-18T14:15:24;19.00;99.90
8820;DHT22;4446;50.876;4.736;2022-10-18T14:17:54;19.00;99.90
8820;DHT22;4446;50.876;4.736;2022-10-18T14:20:25;18.90;99.90
8820;DHT22;4446;50.876;4.736;2022-10-18T14:23:00;18.90;99.90
8820;DHT22;4446;50.876;4.736;2022-10-18T14:25:30;18.90;99.90
8820;DHT22;4446;50.876;4.736;2022-10-18T14:28:05;18.90;99.90
8820;DHT22;4446;50.876;4.736;2022-10-18T14:30:34;18.90;99.90
8820;DHT22;4446;50.876;4.736;2022-10-18T14:33:01;19.00;99.90
8820;DHT22;4446;50.876;4.736;2022-10-18T14:35:31;19.00;99.90
8820;DHT22;4446;50.876;4.736;2022-10-18T14:38:01;18.90;99.90
8820;DHT22;4446;50.876;4.736;2022-10-18T14:40:35;18.90;99.90
8820;DHT22;4446;50.876;4.736;2022-10-18T14:43:08;18.80;99.90
8820;DHT22;4446;50.876;4.736;2022-10-18T14:45:37;18.80;99.90
8820;DHT22;4446;50.876;4.736;2022-10-18T14:48:14;18.70;99.90
8820;DHT22;4446;50.876;4.736;2022-10-18T14:50:42;18.70;99.90
8820;DHT22;4446;50.876;4.736;2022-10-18T14:53:16;18.70;99.90
8820;DHT22;4446;50.876;4.736;2022-10-18T14:55:52;18.70;99.90
8820;DHT22;4446;50.876;4.736;2022-10-18T14:58:20;18.70;99.90
8820;DHT22;4446;50.876;4.736;2022-10-18T15:00:48;18.60;99.90
8820;DHT22;4446;50.876;4.736;2022-10-18T15:03:16;18.70;99.90
8820;DHT22;4446;50.876;4.736;2022-10-18T15:05:54;18.60;99.90
8820;DHT22;4446;50.876;4.736;2022-10-18T15:08:28;18.60;99.90
8820;DHT22;4446;50.876;4.736;2022-10-18T15:10:58;18.60;99.90
8820;DHT22;4446;50.876;4.736;2022-10-18T15:13:26;18.60;99.90
8820;DHT22;4446;50.876;4.736;2022-10-18T15:15:55;18.60;99.90
8820;DHT22;4446;50.876;4.736;2022-10-18T15:18:26;18.60;99.90
8820;DHT22;4446;50.876;4.736;2022-10-18T15:21:19;18.60;99.90
8820;DHT22;4446;50.876;4.736;2022-10-18T15:23:49;18.50;99.90
8820;DHT22;4446;50.876;4.736;2022-10-18T15:26:21;18.40;99.90
8820;DHT22;4446;50.876;4.736;2022-10-18T15:28:52;18.40;99.90
8820;DHT22;4446;50.876;4.736;2022-10-18T15:31:27;18.40;99.90
8820;DHT22;4446;50.876;4.736;2022-10-18T15:34:07;18.30;99.90
8820;DHT22;4446;50.876;4.736;2022-10-18T15:36:34;18.30;99.90
8820;DHT22;4446;50.876;4.736;2022-10-18T15:39:13;18.30;99.90
8820;DHT22;4446;50.876;4.736;2022-10-18T15:41:45;18.30;99.90
8820;DHT22;4446;50.876;4.736;2022-10-18T15:44:23;18.40;99.90
8820;DHT22;4446;50.876;4.736;2022-10-18T15:46:52;18.80;99.90
8820;DHT22;4446;50.876;4.736;2022-10-18T15:49:50;19.20;99.90
8820;DHT22;4446;50.876;4.736;2022-10-18T15:52:35;19.60;99.90
8820;DHT22;4446;50.876;4.736;2022-10-18T15:58:13;19.80;99.90
8820;DHT22;4446;50.876;4.736;2022-10-18T16:00:42;19.60;99.90
8820;DHT22;4446;50.876;4.736;2022-10-18T16:03:09;19.40;99.90
8820;DHT22;4446;50.876;4.736;2022-10-18T16:05:38;19.00;99.90
8820;DHT22;4446;50.876;4.736;2022-10-18T16:08:14;18.70;99.90
8820;DHT22;4446;50.876;4.736;2022-10-18T16:10:45;18.40;99.90
8820;DHT22;4446;50.876;4.736;2022-10-18T16:13:12;18.10;99.90
8820;DHT22;4446;50.876;4.736;2022-10-18T16:15:39;17.90;99.90
8820;DHT22;4446;50.876;4.736;2022-10-18T16:18:07;17.70;99.90
8820;DHT22;4446;50.876;4.736;2022-10-18T16:20:35;17.50;99.90
8820;DHT22;4446;50.876;4.736;2022-10-18T16:23:04;17.30;99.90
8820;DHT22;4446;50.876;4.736;2022-10-18T16:25:34;17.00;99.90
8820;DHT22;4446;50.876;4.736;2022-10-18T16:28:02;16.80;99.90
8820;DHT22;4446;50.876;4.736;2022-10-18T16:30:30;16.50;99.90
8820;DHT22;4446;50.876;4.736;2022-10-18T16:32:59;16.20;99.90
8820;DHT22;4446;50.876;4.736;2022-10-18T16:35:26;16.00;99.90
8820;DHT22;4446;50.876;4.736;2022-10-18T16:37:54;15.70;99.90
8820;DHT22;4446;50.876;4.736;2022-10-18T16:40:23;15.50;99.90
8820;DHT22;4446;50.876;4.736;2022-10-18T16:42:50;15.30;99.90
8820;DHT22;4446;50.876;4.736;2022-10-18T16:45:19;15.10;99.90
8820;DHT22;4446;50.876;4.736;2022-10-18T16:47:46;14.90;99.90
8820;DHT22;4446;50.876;4.736;2022-10-18T16:50:15;14.70;99.90
8820;DHT22;4446;50.876;4.736;2022-10-18T16:52:43;14.60;99.90
8820;DHT22;4446;50.876;4.736;2022-10-18T16:55:10;14.40;99.90
8820;DHT22;4446;50.876;4.736;2022-10-18T16:57:46;14.30;99.90